MDT,Max TemperatureF,Mean TemperatureF,Min TemperatureF,Max Dew PointF,MeanDew PointF,Min DewpointF,Max Humidity, Mean Humidity, Min Humidity, Max Sea Level PressureIn, Mean Sea Level PressureIn, Min Sea Level PressureIn, Max VisibilityMiles, Mean VisibilityMiles, Min VisibilityMiles, Max Wind SpeedMPH, Mean Wind SpeedMPH, Max Gust SpeedMPH,PrecipitationIn, CloudCover, Events, WindDirDegrees
2013-9-1,97,81,65,58,50,39,73,38,14,30.10,30.05,30.00,10,10,10,10,6,16,0.00,1,,124
2013-9-2,94,81,68,55,51,44,60,35,20,30.19,30.12,30.04,10,10,10,16,7,21,0.00,1,,94
2013-9-3,92,80,69,56,50,44,58,37,19,30.22,30.15,30.07,10,10,10,15,6,21,0.00,1,,102
2013-9-4,91,78,65,52,46,38,54,32,16,30.26,30.20,30.14,10,10,10,16,5,21,0.00,1,,102
2013-9-5,92,80,69,51,44,36,47,28,14,30.27,30.21,30.15,10,10,10,15,6,22,0.00,1,,119
2013-9-6,91,80,68,54,49,39,55,35,21,30.26,30.18,30.08,10,10,10,17,5,21,0.00,1,Thunderstorm,98
2013-9-7,92,82,71,54,50,44,53,34,20,30.18,30.12,30.03,10,10,10,16,7,22,0.00,1,,121
2013-9-8,91,82,73,56,49,44,53,33,20,30.11,30.04,29.94,10,10,10,16,8,23,0.00,3,,124
2013-9-9,87,76,66,66,56,48,95,54,31,30.03,29.99,29.91,10,10,7,18,7,23,0.04,3,Rain-Thunderstorm,135
2013-9-10,73,68,63,66,64,63,99,92,68,30.12,30.06,30.01,10,10,2,12,5,17,0.44,8,Rain,123
2013-9-11,77,71,65,66,65,62,98,86,66,30.16,30.11,30.08,10,10,3,13,3,17,0.01,7,Rain-Thunderstorm,108
2013-9-12,71,68,64,65,63,61,98,89,77,30.15,30.11,30.08,10,10,3,18,5,25,0.29,8,Rain-Thunderstorm,115
2013-9-13,72,68,63,65,63,61,98,88,74,30.11,30.06,30.00,10,9,2,10,5,,0.36,8,Rain,56
2013-9-14,80,72,64,62,59,56,89,66,44,30.07,30.02,29.97,10,10,10,10,5,21,0.03,5,Rain-Thunderstorm,93
2013-9-15,84,72,61,60,57,53,89,62,36,30.12,30.07,30.01,10,10,10,14,4,18,0.00,2,Thunderstorm,90
2013-9-16,82,73,64,61,58,55,83,62,41,30.22,30.15,30.11,10,10,10,16,8,22,0.00,4,Thunderstorm,61
2013-9-17,82,73,64,62,60,57,83,64,42,30.17,30.10,30.02,10,10,1,14,6,21,0.00,2,,122
2013-9-18,83,72,62,61,59,57,87,63,40,30.09,30.02,29.94,10,10,10,12,6,9,0.00,1,,133
2013-9-19,85,72,60,66,60,55,91,70,38,30.05,30.00,29.94,10,10,1,12,5,21,0.43,2,Rain-Thunderstorm,126
2013-9-20,80,71,62,64,60,54,98,70,41,30.14,30.08,30.02,10,10,10,15,5,20,0.17,1,,121
2013-9-21,77,68,59,60,57,53,96,70,46,30.19,30.11,30.02,10,10,10,10,5,,0.00,2,,139
2013-9-22,83,68,54,55,52,47,92,56,30,30.02,29.92,29.80,10,10,10,17,7,21,0.00,1,,169
2013-9-23,81,68,54,55,43,28,80,44,16,30.08,29.98,29.86,10,10,10,12,5,18,0.00,0,,306
2013-9-24,82,69,56,44,37,33,61,31,19,30.20,30.12,30.05,10,10,10,13,6,17,0.00,0,,47
2013-9-25,88,70,51,45,42,38,74,39,20,30.05,29.95,29.84,10,10,10,14,5,21,0.00,0,,215
2013-9-26,86,72,57,47,40,34,58,32,18,29.98,29.91,29.86,10,10,10,16,6,22,0.00,2,,236
2013-9-27,82,71,60,55,46,37,67,42,20,30.04,29.93,29.87,10,10,10,31,11,36,0.00,3,,263
2013-9-28,74,63,52,38,24,15,42,24,11,30.25,30.16,30.04,10,10,7,21,12,28,0.00,0,,358
2013-9-29,80,60,41,33,29,22,60,32,15,30.27,30.19,30.10,10,10,10,10,4,,0.00,0,,287
2013-9-30,86,66,47,41,32,20,66,30,11,30.11,30.05,29.97,10,10,10,14,6,21,0.00,0,,278